Time;durP1;ratioP1;P1;durP2;ratioP2;P2;SDS_P1;SDS_P2;PMS_P1;PMS_P2;Temp;Humidity;BMP_temperature;BMP_pressure;BME280_temperature;BME280_humidity;BME280_pressure;Samples;Min_cycle;Max_cycle;Signal;HPM_P1;HPM_P2
2021/05/02 00:00:25;;;;;;;44.55;30.30;;;;;;;3.73;93.89;101493.81;5104027;28;20110;-64
2021/05/02 00:02:50;;;;;;;44.30;30.67;;;;;;;3.74;95.13;101493.91;5103000;28;20126;-64
2021/05/02 00:05:18;;;;;;;45.33;31.55;;;;;;;3.70;96.61;101494.59;5103852;28;20485;-63
2021/05/02 00:07:45;;;;;;;43.47;30.08;;;;;;;3.65;96.55;101501.34;5101789;28;20024;-64
2021/05/02 00:10:12;;;;;;;44.50;31.17;;;;;;;3.80;94.56;101496.78;5102954;28;20028;-63
2021/05/02 00:12:38;;;;;;;43.50;30.30;;;;;;;3.94;93.59;101496.47;5101270;28;20521;-64
2021/05/02 00:15:06;;;;;;;41.67;30.25;;;;;;;4.06;92.89;101502.19;5104422;28;20027;-63
2021/05/02 00:17:35;;;;;;;43.55;29.75;;;;;;;4.17;91.89;101508.75;5101185;28;20028;-64
2021/05/02 00:20:01;;;;;;;41.83;29.73;;;;;;;4.27;92.19;101498.69;5103968;28;20556;-64
2021/05/02 00:22:26;;;;;;;44.53;30.83;;;;;;;4.34;92.00;101500.72;5100677;28;20027;-63
2021/05/02 00:24:52;;;;;;;44.47;30.40;;;;;;;4.31;91.81;101508.41;5102659;28;20028;-64
2021/05/02 00:27:17;;;;;;;43.90;30.23;;;;;;;4.27;91.81;101510.03;5103612;28;20371;-63
2021/05/02 00:29:43;;;;;;;45.35;32.58;;;;;;;4.11;93.20;101507.63;5101312;28;20119;-63
2021/05/02 00:32:09;;;;;;;46.67;32.10;;;;;;;3.99;94.79;101502.75;5104556;28;20023;-63
2021/05/02 00:34:35;;;;;;;46.30;32.72;;;;;;;3.86;96.33;101498.75;5096953;28;20467;-63
2021/05/02 00:37:02;;;;;;;46.03;32.10;;;;;;;3.89;96.68;101500.59;5103743;28;20381;-63
2021/05/02 00:39:29;;;;;;;47.17;32.38;;;;;;;3.91;96.38;101506.78;5101575;28;20115;-63
2021/05/02 00:41:58;;;;;;;46.58;32.15;;;;;;;3.96;96.10;101502.63;5103395;28;20463;-63
2021/05/02 00:44:53;;;;;;;45.92;32.78;;;;;;;3.83;98.02;101503.88;5102286;28;20102;-63
2021/05/02 00:47:28;;;;;;;48.85;34.17;;;;;;;3.90;96.86;101510.22;5057520;28;20047;-64
2021/05/02 00:50:27;;;;;;;47.47;32.45;;;;;;;3.99;94.49;101508.91;5059661;28;20082;-63
2021/05/02 00:53:01;;;;;;;47.72;32.67;;;;;;;3.85;95.33;101510.03;5058472;28;20040;-63
2021/05/02 00:55:56;;;;;;;49.15;33.50;;;;;;;3.73;97.28;101510.41;5059253;28;20028;-63
2021/05/02 00:58:42;;;;;;;48.03;33.25;;;;;;;3.67;97.08;101518.00;5056637;28;20091;-63
2021/05/02 01:01:09;;;;;;;46.15;32.22;;;;;;;3.59;97.04;101514.16;5054556;28;20043;-63
2021/05/02 01:03:39;;;;;;;47.90;33.25;;;;;;;3.58;98.09;101507.13;5061405;28;20033;-63
2021/05/02 01:06:10;;;;;;;48.25;33.60;;;;;;;3.58;97.97;101513.28;5058163;28;20124;-63
2021/05/02 01:08:36;;;;;;;49.13;34.58;;;;;;;3.51;98.29;101513.84;5054679;28;20094;-64
2021/05/02 01:11:04;;;;;;;48.67;34.75;;;;;;;3.45;98.70;101518.75;5047902;28;20414;-63
2021/05/02 01:13:34;;;;;;;48.88;34.35;;;;;;;3.31;100.00;101526.00;5062069;28;20430;-64
2021/05/02 01:16:03;;;;;;;49.63;33.65;;;;;;;3.33;100.00;101520.84;5064543;28;20040;-63
2021/05/02 01:18:28;;;;;;;49.80;34.72;;;;;;;3.22;100.00;101510.81;5062556;28;20032;-63
2021/05/02 01:20:57;;;;;;;48.40;34.25;;;;;;;3.22;100.00;101520.34;5063363;28;20122;-63
2021/05/02 01:23:27;;;;;;;51.55;35.28;;;;;;;3.19;100.00;101521.13;5069835;28;20046;-63
2021/05/02 01:25:55;;;;;;;51.65;35.80;;;;;;;3.17;100.00;101521.88;5085465;28;20056;-63
2021/05/02 01:28:21;;;;;;;50.33;35.03;;;;;;;3.16;100.00;101521.00;5085675;28;20081;-64
2021/05/02 01:30:47;;;;;;;53.17;38.35;;;;;;;3.08;100.00;101515.41;5084537;28;20032;-63
2021/05/02 01:33:14;;;;;;;54.58;36.88;;;;;;;3.06;100.00;101522.28;5086886;28;20046;-64
2021/05/02 01:35:39;;;;;;;51.88;36.83;;;;;;;3.04;100.00;101513.47;5083307;28;20020;-64
2021/05/02 01:38:05;;;;;;;52.47;36.67;;;;;;;3.01;100.00;101521.16;5078667;28;20069;-64
2021/05/02 01:40:31;;;;;;;54.17;39.15;;;;;;;2.89;100.00;101512.78;5084217;28;20028;-63
2021/05/02 01:42:56;;;;;;;53.13;36.45;;;;;;;2.91;100.00;101521.56;5085470;28;20360;-64
2021/05/02 01:45:21;;;;;;;55.20;38.28;;;;;;;2.83;100.00;101522.94;5085514;28;20024;-63
2021/05/02 01:47:52;;;;;;;54.28;38.97;;;;;;;2.77;100.00;101524.44;5084281;28;20368;-63
2021/05/02 01:50:17;;;;;;;56.72;38.80;;;;;;;2.79;100.00;101520.16;5085597;28;20513;-63
2021/05/02 01:52:53;;;;;;;53.58;37.13;;;;;;;2.75;100.00;101533.94;5083691;28;20029;-63
2021/05/02 01:55:19;;;;;;;52.33;36.80;;;;;;;2.75;100.00;101523.50;5085469;28;20031;-63
2021/05/02 01:57:47;;;;;;;54.60;37.65;;;;;;;2.73;100.00;101529.44;5083616;28;20077;-63
2021/05/02 02:00:24;;;;;;;54.55;38.60;;;;;;;2.70;100.00;101535.41;5086314;28;20024;-64
2021/05/02 02:02:50;;;;;;;52.88;37.53;;;;;;;2.72;100.00;101531.19;5084491;28;20039;-62
2021/05/02 02:05:16;;;;;;;54.58;36.22;;;;;;;2.68;100.00;101526.63;5085766;28;20032;-62
2021/05/02 02:07:42;;;;;;;53.42;37.03;;;;;;;2.65;100.00;101534.31;5082848;28;20174;-62
2021/05/02 02:10:09;;;;;;;53.08;36.28;;;;;;;2.65;100.00;101530.78;5086350;28;20024;-62
2021/05/02 02:12:35;;;;;;;50.40;34.65;;;;;;;2.60;100.00;101535.81;5083319;28;20107;-62
2021/05/02 02:15:01;;;;;;;52.88;36.28;;;;;;;2.66;100.00;101533.47;5085567;28;20084;-62
2021/05/02 02:17:27;;;;;;;52.40;36.47;;;;;;;2.66;100.00;101537.81;5082640;28;20036;-62
2021/05/02 02:19:53;;;;;;;51.58;35.92;;;;;;;2.60;100.00;101538.41;5087948;28;20043;-62
2021/05/02 02:22:20;;;;;;;52.03;36.50;;;;;;;2.63;100.00;101538.56;5104582;28;20043;-62
2021/05/02 02:24:56;;;;;;;51.70;35.55;;;;;;;2.57;100.00;101548.72;5103719;28;20093;-60
2021/05/02 02:27:26;;;;;;;54.85;37.63;;;;;;;2.50;100.00;101539.69;5105001;28;20059;-63
2021/05/02 02:29:52;;;;;;;52.67;36.08;;;;;;;2.46;100.00;101544.69;5104259;28;20024;-63
2021/05/02 02:32:18;;;;;;;55.03;38.67;;;;;;;2.39;100.00;101551.34;5105513;28;20414;-62
2021/05/02 02:34:46;;;;;;;54.40;38.45;;;;;;;2.38;100.00;101546.94;5103434;28;20035;-62
2021/05/02 02:37:14;;;;;;;54.47;36.78;;;;;;;2.35;100.00;101547.66;5105689;28;20088;-62
2021/05/02 02:39:46;;;;;;;55.40;38.67;;;;;;;2.38;100.00;101542.59;5102550;28;20046;-62
2021/05/02 02:42:13;;;;;;;58.20;39.13;;;;;;;2.35;100.00;101547.66;5099299;28;20107;-61
2021/05/02 02:45:02;;;;;;;52.97;36.53;;;;;;;2.29;100.00;101547.38;5105159;28;20445;-62
2021/05/02 02:47:38;;;;;;;57.38;37.55;;;;;;;2.28;100.00;101545.56;5103315;28;20474;-61
2021/05/02 02:50:09;;;;;;;56.60;36.00;;;;;;;2.32;100.00;101554.47;5102856;28;20081;-62
2021/05/02 02:52:55;;;;;;;56.58;38.55;;;;;;;2.35;100.00;101550.28;5105601;28;20595;-61
2021/05/02 02:55:23;;;;;;;53.72;36.75;;;;;;;2.32;100.00;101559.69;5101541;28;20031;-62
2021/05/02 02:58:00;;;;;;;60.10;39.55;;;;;;;2.30;100.00;101559.59;5104603;28;20410;-61
2021/05/02 03:00:36;;;;;;;55.05;37.85;;;;;;;2.28;100.00;101553.41;5104290;28;20036;-62
2021/05/02 03:03:08;;;;;;;54.95;36.67;;;;;;;2.26;100.00;101568.09;5103204;28;20387;-62
2021/05/02 03:05:35;;;;;;;53.00;36.70;;;;;;;2.14;100.00;101560.56;5105205;28;20028;-63
2021/05/02 03:08:02;;;;;;;55.58;37.75;;;;;;;2.15;100.00;101569.28;5102815;28;20028;-63
2021/05/02 03:10:29;;;;;;;53.80;37.45;;;;;;;2.11;100.00;101559.50;5104416;28;20020;-63
2021/05/02 03:12:55;;;;;;;52.45;36.35;;;;;;;2.09;100.00;101569.84;5103494;28;20051;-63
2021/05/02 03:15:21;;;;;;;56.60;37.35;;;;;;;2.15;100.00;101569.28;5103033;28;20023;-62
2021/05/02 03:18:03;;;;;;;54.80;37.70;;;;;;;2.12;100.00;101574.34;5104656;28;20024;-64
2021/05/02 03:20:33;;;;;;;53.53;35.75;;;;;;;2.14;100.00;101577.91;5104136;28;20174;-62
2021/05/02 03:23:05;;;;;;;59.30;38.80;;;;;;;2.06;100.00;101574.91;5103162;28;20036;-63
2021/05/02 03:25:34;;;;;;;54.67;38.40;;;;;;;2.00;100.00;101572.88;5104290;28;20377;-63
2021/05/02 03:28:03;;;;;;;55.80;37.60;;;;;;;2.02;100.00;101581.69;5102773;28;20027;-63
2021/05/02 03:30:29;;;;;;;57.88;40.30;;;;;;;2.02;100.00;101575.56;5104188;28;20520;-62
2021/05/02 03:32:57;;;;;;;55.20;38.05;;;;;;;1.93;100.00;101586.44;5102331;28;20019;-63
2021/05/02 03:35:30;;;;;;;56.35;38.35;;;;;;;1.93;100.00;101586.44;5103073;28;20059;-63
2021/05/02 03:38:17;;;;;;;59.55;40.88;;;;;;;1.82;100.00;101585.91;5102931;28;20065;-63
2021/05/02 03:40:44;;;;;;;58.33;38.42;;;;;;;1.86;100.00;101586.94;5098554;28;20028;-63
2021/05/02 03:43:10;;;;;;;55.83;37.20;;;;;;;1.84;100.00;101588.59;5105150;28;20031;-62
2021/05/02 03:45:35;;;;;;;55.00;37.53;;;;;;;1.81;100.00;101594.53;5101372;28;20512;-63
2021/05/02 03:48:01;;;;;;;52.75;35.63;;;;;;;1.81;100.00;101596.25;5104540;28;20031;-64
2021/05/02 03:50:26;;;;;;;52.25;34.90;;;;;;;1.79;100.00;101592.66;5102833;28;20098;-63
2021/05/02 03:52:52;;;;;;;52.20;35.50;;;;;;;1.82;100.00;101603.22;5102614;28;20095;-63
2021/05/02 03:55:17;;;;;;;54.85;36.17;;;;;;;1.69;100.00;101602.59;5104117;28;20461;-63
2021/05/02 03:57:43;;;;;;;53.47;35.80;;;;;;;1.66;100.00;101605.06;5101315;28;20024;-63
2021/05/02 04:00:09;;;;;;;52.15;34.65;;;;;;;1.66;100.00;101599.84;5104762;28;20062;-61
2021/05/02 04:02:34;;;;;;;54.45;35.72;;;;;;;1.62;100.00;101603.09;5101623;28;20385;-62
2021/05/02 04:04:59;;;;;;;53.17;35.58;;;;;;;1.55;100.00;101611.41;5103636;28;20031;-63
2021/05/02 04:07:25;;;;;;;53.22;36.33;;;;;;;1.50;100.00;101618.06;5102541;28;20390;-63
2021/05/02 04:09:50;;;;;;;53.78;36.53;;;;;;;1.46;100.00;101617.03;5102518;28;20182;-63
2021/05/02 04:12:16;;;;;;;53.67;36.00;;;;;;;1.44;100.00;101617.75;5103906;28;20379;-63
2021/05/02 04:14:42;;;;;;;57.17;38.78;;;;;;;1.39;100.00;101621.00;5101313;28;20028;-61
2021/05/02 04:17:09;;;;;;;53.92;36.50;;;;;;;1.37;100.00;101622.63;5097163;28;20425;-63
2021/05/02 04:19:40;;;;;;;53.35;35.42;;;;;;;1.35;100.00;101626.84;5102609;28;20120;-63
2021/05/02 04:22:06;;;;;;;54.65;34.97;;;;;;;1.38;100.00;101631.34;5100927;28;20105;-62
2021/05/02 04:24:32;;;;;;;47.78;33.70;;;;;;;1.49;100.00;101634.53;5103908;28;20485;-62
2021/05/02 04:26:58;;;;;;;48.00;33.10;;;;;;;1.52;100.00;101642.53;5102585;28;20032;-63
2021/05/02 04:29:29;;;;;;;51.78;33.20;;;;;;;1.48;100.00;101643.16;5102744;28;20024;-63
2021/05/02 04:31:55;;;;;;;52.45;35.67;;;;;;;1.45;100.00;101641.28;5102844;28;20076;-63
2021/05/02 04:34:22;;;;;;;48.67;32.63;;;;;;;1.53;100.00;101650.41;5102433;28;20036;-64
2021/05/02 04:36:49;;;;;;;51.92;34.25;;;;;;;1.43;100.00;101649.81;5103349;28;20092;-63
2021/05/02 04:39:16;;;;;;;51.65;33.85;;;;;;;1.43;100.00;101657.63;5101367;28;20475;-63
2021/05/02 04:41:41;;;;;;;52.30;34.95;;;;;;;1.46;100.00;101655.22;5104584;28;20019;-62
2021/05/02 04:44:07;;;;;;;50.15;34.67;;;;;;;1.44;100.00;101659.44;5102438;28;20020;-61
2021/05/02 04:46:32;;;;;;;51.58;35.22;;;;;;;1.50;100.00;101659.75;5107657;28;20545;-63
2021/05/02 04:48:57;;;;;;;48.58;33.28;;;;;;;1.59;100.00;101667.19;5105955;28;20145;-61
2021/05/02 04:51:23;;;;;;;50.65;34.45;;;;;;;1.69;100.00;101664.25;5106365;28;20042;-62
2021/05/02 04:53:49;;;;;;;52.28;34.33;;;;;;;1.79;100.00;101669.19;5107412;28;20024;-62
2021/05/02 04:56:15;;;;;;;48.00;30.75;;;;;;;2.00;100.00;101672.00;5105056;28;20042;-62
2021/05/02 04:58:42;;;;;;;46.72;31.10;;;;;;;2.15;100.00;101668.41;5108387;28;20031;-62
2021/05/02 05:01:07;;;;;;;47.03;31.25;;;;;;;2.29;100.00;101670.00;5104675;28;20059;-61
2021/05/02 05:03:34;;;;;;;47.90;30.75;;;;;;;2.43;100.00;101675.91;5107323;28;20059;-62
2021/05/02 05:05:59;;;;;;;45.75;29.02;;;;;;;2.55;100.00;101680.84;5104878;28;20027;-61
2021/05/02 05:08:25;;;;;;;43.42;28.33;;;;;;;2.58;100.00;101679.31;5098976;28;20036;-60
2021/05/02 05:10:50;;;;;;;44.10;29.00;;;;;;;2.61;100.00;101679.47;5101185;28;20086;-61
2021/05/02 05:13:16;;;;;;;42.33;26.55;;;;;;;2.72;100.00;101677.41;5105945;28;20063;-62
2021/05/02 05:15:41;;;;;;;43.75;28.15;;;;;;;2.79;100.00;101682.09;5101977;28;20455;-60
2021/05/02 05:18:06;;;;;;;42.75;27.20;;;;;;;3.03;100.00;101686.75;5099328;28;20055;-60
2021/05/02 05:20:32;;;;;;;40.35;25.98;;;;;;;3.33;100.00;101689.00;5104642;28;20047;-60
2021/05/02 05:22:57;;;;;;;40.63;25.13;;;;;;;3.48;100.00;101691.44;5096214;28;20070;-62
2021/05/02 05:25:23;;;;;;;40.13;24.38;;;;;;;3.57;97.63;101697.13;5102264;28;20032;-62
2021/05/02 05:27:48;;;;;;;37.97;24.50;;;;;;;3.52;97.67;101702.97;5102328;28;20056;-60
2021/05/02 05:30:14;;;;;;;37.80;22.90;;;;;;;3.46;98.34;101704.44;5102301;28;20024;-60
2021/05/02 05:32:39;;;;;;;39.45;24.13;;;;;;;3.46;99.21;101706.16;5104752;28;20023;-60
2021/05/02 05:35:06;;;;;;;36.58;23.23;;;;;;;3.42;99.17;101705.16;5101152;27;20020;-59
2021/05/02 05:37:31;;;;;;;36.60;22.65;;;;;;;3.41;96.99;101711.19;5101008;28;20470;-62
2021/05/02 05:39:57;;;;;;;39.20;24.85;;;;;;;3.45;98.16;101713.13;5099774;28;20027;-59
2021/05/02 05:42:22;;;;;;;38.88;23.02;;;;;;;3.51;97.21;101707.31;5100249;28;20034;-60
2021/05/02 05:44:47;;;;;;;36.47;21.92;;;;;;;3.66;95.52;101709.72;5099929;28;20028;-60
2021/05/02 05:47:13;;;;;;;39.45;24.23;;;;;;;3.68;95.53;101721.13;5100509;28;20020;-62
2021/05/02 05:49:40;;;;;;;34.53;21.33;;;;;;;3.72;92.94;101720.47;5101190;28;20568;-62
2021/05/02 05:52:09;;;;;;;38.13;23.02;;;;;;;3.70;94.63;101722.13;5100380;28;20111;-63
2021/05/02 05:54:36;;;;;;;36.15;21.80;;;;;;;3.75;94.06;101723.22;5099577;28;20024;-61
2021/05/02 05:57:02;;;;;;;36.42;22.92;;;;;;;3.76;92.67;101726.75;5096918;28;20431;-62
2021/05/02 05:59:27;;;;;;;39.53;23.45;;;;;;;3.78;94.54;101723.34;5103495;28;20059;-62
2021/05/02 06:01:53;;;;;;;35.53;20.92;;;;;;;3.92;92.38;101725.72;5102350;28;20050;-61
2021/05/02 06:04:18;;;;;;;38.92;23.25;;;;;;;3.94;92.52;101726.69;5102639;28;20093;-61
2021/05/02 06:06:43;;;;;;;34.33;20.85;;;;;;;4.08;90.62;101727.28;5098883;28;20428;-61
2021/05/02 06:09:09;;;;;;;35.08;20.33;;;;;;;4.10;92.03;101739.63;5100610;28;20351;-61
2021/05/02 06:11:36;;;;;;;33.92;19.02;;;;;;;4.19;90.70;101731.28;5105187;28;20036;-60
2021/05/02 06:14:02;;;;;;;34.88;19.67;;;;;;;4.32;90.56;101732.72;5100744;28;20020;-62
2021/05/02 06:16:27;;;;;;;34.05;19.77;;;;;;;4.42;89.82;101732.31;5104276;28;20118;-60
2021/05/02 06:18:54;;;;;;;35.03;19.60;;;;;;;4.55;89.11;101736.34;5106771;28;20101;-61
2021/05/02 06:21:20;;;;;;;32.35;18.23;;;;;;;4.75;87.45;101739.84;5104522;28;20044;-59
2021/05/02 06:23:50;;;;;;;31.98;16.63;;;;;;;4.95;85.40;101737.13;5106085;28;21630;-60
2021/05/02 06:26:18;;;;;;;29.25;15.38;;;;;;;5.04;83.80;101734.91;5102170;28;20126;-61
2021/05/02 06:28:44;;;;;;;29.27;16.02;;;;;;;5.18;82.39;101735.47;5102089;28;20020;-62
2021/05/02 06:31:11;;;;;;;28.85;14.20;;;;;;;5.29;82.02;101743.78;5102475;28;20032;-62
2021/05/02 06:33:36;;;;;;;28.25;14.68;;;;;;;5.32;81.21;101733.41;5101780;28;20366;-60
2021/05/02 06:36:01;;;;;;;30.10;15.25;;;;;;;5.37;82.40;101739.72;5100791;28;20089;-61
2021/05/02 06:38:27;;;;;;;29.15;14.30;;;;;;;5.39;79.44;101735.44;5099451;28;20050;-62
2021/05/02 06:40:52;;;;;;;27.98;13.95;;;;;;;5.44;81.38;101739.13;5102216;28;20164;-62
2021/05/02 06:43:17;;;;;;;26.95;12.60;;;;;;;5.49;81.05;101731.44;5095754;28;20027;-61
2021/05/02 06:45:43;;;;;;;26.00;11.55;;;;;;;5.63;78.35;101746.00;5093845;28;20031;-62
2021/05/02 06:48:09;;;;;;;26.17;11.50;;;;;;;5.70;77.77;101736.66;5093098;28;20053;-65
2021/05/02 06:50:34;;;;;;;25.63;11.30;;;;;;;5.75;78.17;101743.84;5097273;28;20062;-64
2021/05/02 06:53:00;;;;;;;24.52;9.90;;;;;;;5.87;75.47;101750.41;5096083;28;20415;-66
2021/05/02 06:55:25;;;;;;;23.88;10.18;;;;;;;5.94;75.64;101744.53;5093341;27;20024;-63
2021/05/02 06:57:50;;;;;;;26.63;10.75;;;;;;;6.06;75.68;101745.03;5099076;28;20028;-63
2021/05/02 07:00:17;;;;;;;24.70;9.50;;;;;;;6.11;73.67;101743.47;5104150;28;20024;-62
2021/05/02 07:02:42;;;;;;;24.33;8.88;;;;;;;6.22;70.80;101754.38;5102232;28;20060;-62
2021/05/02 07:05:08;;;;;;;24.30;9.18;;;;;;;6.33;71.04;101759.13;5105531;28;20066;-63
2021/05/02 07:07:33;;;;;;;22.77;8.05;;;;;;;6.38;71.26;101755.84;5097655;28;20038;-64
2021/05/02 07:09:58;;;;;;;23.33;7.95;;;;;;;6.37;71.09;101759.28;5104794;28;20027;-65
2021/05/02 07:12:25;;;;;;;23.08;8.18;;;;;;;6.43;70.58;101758.63;5103212;28;20035;-60
2021/05/02 07:14:50;;;;;;;23.60;8.63;;;;;;;6.52;71.76;101765.94;5103775;28;20371;-64
2021/05/02 07:17:16;;;;;;;21.55;7.70;;;;;;;6.67;69.06;101765.56;5104114;28;20032;-62
2021/05/02 07:19:41;;;;;;;22.90;8.00;;;;;;;6.93;69.10;101766.47;5102458;28;20023;-60
2021/05/02 07:22:07;;;;;;;21.75;7.70;;;;;;;7.08;68.16;101774.00;5105064;28;20051;-60
2021/05/02 07:24:33;;;;;;;22.27;7.35;;;;;;;7.02;66.65;101777.31;5097528;28;20024;-64
2021/05/02 07:26:59;;;;;;;22.55;7.15;;;;;;;6.94;66.29;101777.03;5104553;28;20027;-63
2021/05/02 07:29:25;;;;;;;21.67;6.30;;;;;;;6.92;66.63;101783.09;5102716;28;20541;-64
2021/05/02 07:31:50;;;;;;;21.80;6.28;;;;;;;6.95;65.29;101785.84;5103145;28;20116;-64
2021/05/02 07:34:16;;;;;;;21.27;6.10;;;;;;;6.88;66.68;101789.09;5104307;28;20019;-62
2021/05/02 07:36:41;;;;;;;20.08;5.88;;;;;;;7.12;65.07;101786.38;5101732;28;20355;-62
2021/05/02 07:39:07;;;;;;;19.95;5.88;;;;;;;7.54;64.27;101785.13;5105374;28;20411;-62
2021/05/02 07:41:33;;;;;;;19.70;5.53;;;;;;;7.86;62.26;101780.84;5101455;28;20524;-61
2021/05/02 07:43:58;;;;;;;18.70;5.20;;;;;;;8.18;60.57;101778.28;5104099;28;20186;-62
2021/05/02 07:46:24;;;;;;;19.10;5.63;;;;;;;8.66;59.99;101788.44;5102979;28;20055;-62
2021/05/02 07:48:49;;;;;;;19.38;4.90;;;;;;;8.91;57.14;101786.47;5102850;28;20039;-62
2021/05/02 07:51:14;;;;;;;19.58;5.07;;;;;;;9.08;56.01;101787.78;5103893;28;20106;-61
2021/05/02 07:53:40;;;;;;;19.90;5.03;;;;;;;9.02;55.55;101782.38;5101657;28;20032;-62
2021/05/02 07:56:05;;;;;;;16.48;4.30;;;;;;;8.90;54.04;101782.06;5104610;28;20030;-61
2021/05/02 07:58:30;;;;;;;18.58;4.72;;;;;;;8.72;53.49;101793.00;5101466;28;20032;-61
2021/05/02 08:00:56;;;;;;;16.85;4.40;;;;;;;8.72;54.28;101782.44;5103882;28;20471;-62
2021/05/02 08:03:21;;;;;;;19.13;4.95;;;;;;;8.57;55.16;101793.47;5103010;28;20027;-62
2021/05/02 08:05:48;;;;;;;17.17;4.45;;;;;;;8.64;54.64;101795.44;5102270;28;20099;-61
2021/05/02 08:08:13;;;;;;;16.10;4.50;;;;;;;8.87;53.45;101782.88;5104052;28;20035;-62
2021/05/02 08:10:38;;;;;;;20.95;4.55;;;;;;;8.89;53.81;101794.34;5101031;28;20027;-60
2021/05/02 08:13:03;;;;;;;16.20;4.35;;;;;;;8.82;53.88;101796.78;5104580;28;20088;-61
2021/05/02 08:15:29;;;;;;;17.92;4.32;;;;;;;8.81;53.63;101792.34;5101463;28;20028;-61
2021/05/02 08:17:56;;;;;;;20.00;4.63;;;;;;;9.41;52.22;101788.59;5100846;28;20052;-62
2021/05/02 08:20:22;;;;;;;15.15;4.20;;;;;;;10.52;49.83;101792.81;5107397;28;20044;-62
2021/05/02 08:22:47;;;;;;;17.40;4.20;;;;;;;11.73;46.68;101780.75;5105075;28;20485;-62
2021/05/02 08:25:13;;;;;;;17.98;4.32;;;;;;;12.26;44.90;101786.78;5099315;28;20493;-61
2021/05/02 08:27:38;;;;;;;20.05;4.63;;;;;;;11.79;44.72;101780.81;5104660;28;20031;-60
2021/05/02 08:30:05;;;;;;;18.08;4.47;;;;;;;10.69;46.04;101791.38;5094061;28;20024;-60
2021/05/02 08:32:31;;;;;;;14.30;3.58;;;;;;;9.80;45.00;101792.13;5095127;28;20126;-61
2021/05/02 08:34:56;;;;;;;14.40;3.95;;;;;;;9.26;47.73;101791.75;5095633;28;20145;-61
2021/05/02 08:37:22;;;;;;;14.00;3.58;;;;;;;9.75;46.80;101798.19;5096910;28;20038;-61
2021/05/02 08:39:47;;;;;;;16.45;4.07;;;;;;;10.48;45.97;101796.25;5094298;28;20055;-61
2021/05/02 08:42:12;;;;;;;17.42;4.82;;;;;;;11.11;44.61;101797.41;5098072;28;20035;-61
2021/05/02 08:44:38;;;;;;;17.05;4.40;;;;;;;11.59;43.62;101792.88;5094947;28;20359;-61
2021/05/02 08:47:05;;;;;;;15.60;4.47;;;;;;;12.44;42.34;101796.72;5094428;28;20031;-62
2021/05/02 08:49:31;;;;;;;17.52;4.30;;;;;;;13.36;40.37;101787.03;5097184;27;20473;-61
2021/05/02 08:51:56;;;;;;;17.48;4.30;;;;;;;14.30;38.38;101792.91;5094115;28;20043;-60
2021/05/02 08:54:21;;;;;;;16.02;4.40;;;;;;;13.57;38.32;101790.72;5103481;28;20027;-60
2021/05/02 08:56:47;;;;;;;15.15;4.20;;;;;;;12.47;40.32;101786.16;5104996;28;20028;-60
2021/05/02 08:59:13;;;;;;;17.52;4.32;;;;;;;11.94;41.28;101789.88;5103622;28;20020;-61
2021/05/02 09:01:39;;;;;;;15.65;3.97;;;;;;;12.95;38.94;101790.19;5106886;28;20028;-61
2021/05/02 09:04:06;;;;;;;17.52;4.72;;;;;;;13.27;37.81;101786.94;5107419;28;20470;-60
2021/05/02 09:06:32;;;;;;;17.10;4.55;;;;;;;12.36;38.89;101788.66;5100326;28;20028;-60
2021/05/02 09:09:03;;;;;;;18.30;4.40;;;;;;;11.46;41.86;101790.06;5107350;28;20547;-63
2021/05/02 09:11:47;;;;;;;17.45;4.00;;;;;;;10.92;41.81;101794.47;5097621;28;20370;-64
2021/05/02 09:14:21;;;;;;;15.60;4.28;;;;;;;10.39;43.13;101797.84;5106162;28;20031;-64
2021/05/02 09:16:50;;;;;;;18.15;4.68;;;;;;;9.97;43.44;101798.69;5101058;28;20044;-64
2021/05/02 09:19:16;;;;;;;17.83;5.30;;;;;;;9.75;44.68;101808.75;5100503;28;20031;-63
2021/05/02 09:21:42;;;;;;;19.08;5.35;;;;;;;9.41;45.83;101809.72;5105956;28;20061;-64
2021/05/02 09:24:25;;;;;;;20.52;5.60;;;;;;;9.12;47.75;101819.53;5104861;28;20020;-64
2021/05/02 09:27:20;;;;;;;21.27;5.53;;;;;;;10.17;45.83;101806.16;5104653;28;20161;-63
2021/05/02 09:29:46;;;;;;;19.35;5.13;;;;;;;12.07;40.78;101798.91;5080627;28;20041;-63
2021/05/02 09:32:14;;;;;;;16.55;4.38;;;;;;;12.94;38.07;101796.38;5083129;28;20454;-64
2021/05/02 09:34:51;;;;;;;15.63;4.10;;;;;;;13.83;38.07;101793.53;5082145;28;20368;-61
2021/05/02 09:37:16;;;;;;;16.83;4.10;;;;;;;13.17;36.82;101787.72;5082931;28;20042;-63
2021/05/02 09:39:48;;;;;;;14.93;3.97;;;;;;;12.27;39.58;101793.88;5082593;28;20033;-62
2021/05/02 09:42:15;;;;;;;18.05;4.60;;;;;;;11.98;40.01;101797.00;5083209;28;20036;-62
2021/05/02 09:44:46;;;;;;;17.33;4.72;;;;;;;12.69;40.96;101803.19;5082452;28;20104;-62
2021/05/02 09:47:42;;;;;;;14.85;4.20;;;;;;;13.16;39.58;101802.75;5083633;28;20154;-63
2021/05/02 09:50:10;;;;;;;17.73;4.40;;;;;;;12.16;40.62;101807.88;5077935;28;20041;-62
2021/05/02 09:52:44;;;;;;;18.48;4.95;;;;;;;11.48;42.13;101812.16;5084064;28;20043;-62
2021/05/02 09:55:24;;;;;;;17.15;4.47;;;;;;;11.06;43.67;101807.91;5081847;28;20033;-62
2021/05/02 09:58:04;;;;;;;16.45;4.40;;;;;;;10.85;44.20;101812.81;5081880;28;20539;-62
2021/05/02 10:00:35;;;;;;;17.63;4.10;;;;;;;10.49;43.23;101819.19;5076853;28;20040;-62
2021/05/02 10:03:02;;;;;;;16.77;4.15;;;;;;;10.41;44.45;101817.28;5077259;28;20036;-63
2021/05/02 10:05:29;;;;;;;18.83;4.30;;;;;;;10.71;44.25;101818.72;5088040;28;20032;-62
2021/05/02 10:07:55;;;;;;;15.40;4.60;;;;;;;11.21;43.31;101812.56;5103775;28;20028;-63
2021/05/02 10:10:21;;;;;;;16.17;4.38;;;;;;;11.66;42.51;101808.00;5105754;28;20028;-62
2021/05/02 10:12:51;;;;;;;18.55;4.30;;;;;;;11.72;42.40;101808.09;5104855;28;20020;-63
2021/05/02 10:15:18;;;;;;;13.70;4.10;;;;;;;11.75;41.05;101799.31;5105011;28;20039;-61
2021/05/02 10:17:45;;;;;;;15.57;4.60;;;;;;;11.77;40.51;101805.53;5105354;28;20130;-62
2021/05/02 10:20:12;;;;;;;17.80;4.30;;;;;;;11.47;40.80;101813.00;5103860;28;20115;-61
2021/05/02 10:22:38;;;;;;;15.07;4.20;;;;;;;11.33;41.26;101806.63;5105760;28;20103;-62
2021/05/02 10:25:04;;;;;;;15.93;4.07;;;;;;;11.36;40.13;101809.31;5103055;28;20130;-61
2021/05/02 10:27:29;;;;;;;16.65;3.90;;;;;;;10.76;40.25;101811.78;5100040;28;20409;-60
2021/05/02 10:29:58;;;;;;;12.52;3.65;;;;;;;10.66;41.83;101814.22;5097090;28;20483;-60
2021/05/02 10:32:33;;;;;;;17.02;3.90;;;;;;;10.57;43.27;101813.19;5097301;28;20417;-60
2021/05/02 10:35:09;;;;;;;14.07;3.60;;;;;;;10.25;41.94;101818.69;5099450;28;20032;-60
2021/05/02 10:37:38;;;;;;;15.20;4.18;;;;;;;9.76;43.41;101814.94;5099086;28;20059;-61
2021/05/02 10:40:18;;;;;;;14.43;4.00;;;;;;;9.96;44.09;101815.41;5098017;28;20084;-60
2021/05/02 10:42:53;;;;;;;17.00;4.18;;;;;;;9.67;44.09;101814.72;5100426;28;20028;-59
2021/05/02 10:45:27;;;;;;;16.05;4.22;;;;;;;9.65;44.63;101817.31;5096622;28;20027;-60
2021/05/02 10:47:53;;;;;;;15.70;4.28;;;;;;;10.41;44.52;101819.94;5098339;28;20023;-60
2021/05/02 10:50:34;;;;;;;13.60;3.63;;;;;;;12.39;38.18;101807.25;5097449;28;20035;-61
2021/05/02 10:53:05;;;;;;;14.35;3.80;;;;;;;12.06;37.56;101808.63;5098468;28;20024;-60
2021/05/02 10:55:52;;;;;;;16.35;4.10;;;;;;;11.80;38.53;101803.81;5095593;28;20082;-60
2021/05/02 10:58:18;;;;;;;15.05;4.10;;;;;;;11.86;38.38;101797.69;5094872;28;20367;-61
2021/05/02 11:00:48;;;;;;;15.30;4.22;;;;;;;11.97;39.21;101813.78;5094046;28;20054;-61
2021/05/02 11:03:35;;;;;;;13.00;3.88;;;;;;;12.32;38.89;101808.06;5092083;28;20435;-61
2021/05/02 11:06:12;;;;;;;16.52;3.97;;;;;;;12.20;38.76;101804.41;5093142;28;20028;-60
2021/05/02 11:08:46;;;;;;;18.10;4.40;;;;;;;11.46;39.68;101813.88;5092291;28;20509;-60
2021/05/02 11:11:33;;;;;;;13.43;4.20;;;;;;;11.47;40.99;101806.81;5090772;28;20027;-60
2021/05/02 11:14:08;;;;;;;13.70;4.00;;;;;;;11.77;39.45;101808.19;5091764;28;20126;-60
2021/05/02 11:16:33;;;;;;;15.25;4.05;;;;;;;11.12;40.29;101802.72;5092921;28;20351;-64
2021/05/02 11:18:59;;;;;;;15.13;4.18;;;;;;;10.82;40.13;101819.84;5092299;28;20355;-59